sensor_id;sensor_type;location;lat;lon;timestamp;P1;durP1;ratioP1;P2;durP2;ratioP2
23163;SDS011;31429;42.674;23.350;2023-04-01T00:00:26;20.07;;;13.83;;
23163;SDS011;31429;42.674;23.350;2023-04-01T00:01:28;15.07;;;8.83;;
23163;SDS011;31429;42.674;23.350;2023-04-01T00:02:29;16.40;;;8.95;;
23163;SDS011;31429;42.674;23.350;2023-04-01T00:03:29;21.90;;;11.43;;
23163;SDS011;31429;42.674;23.350;2023-04-01T00:04:30;38.23;;;22.33;;
23163;SDS011;31429;42.674;23.350;2023-04-01T00:05:32;28.90;;;18.52;;
23163;SDS011;31429;42.674;23.350;2023-04-01T00:06:32;32.07;;;19.60;;
23163;SDS011;31429;42.674;23.350;2023-04-01T00:07:33;38.00;;;21.90;;
23163;SDS011;31429;42.674;23.350;2023-04-01T00:08:34;30.73;;;20.17;;
23163;SDS011;31429;42.674;23.350;2023-04-01T00:09:34;32.67;;;20.80;;
23163;SDS011;31429;42.674;23.350;2023-04-01T00:10:35;31.37;;;21.07;;
23163;SDS011;31429;42.674;23.350;2023-04-01T00:11:36;36.90;;;22.73;;
23163;SDS011;31429;42.674;23.350;2023-04-01T00:12:37;39.23;;;25.47;;
23163;SDS011;31429;42.674;23.350;2023-04-01T00:13:38;37.43;;;24.27;;
23163;SDS011;31429;42.674;23.350;2023-04-01T00:14:38;39.03;;;20.03;;
23163;SDS011;31429;42.674;23.350;2023-04-01T00:15:40;35.90;;;21.77;;
23163;SDS011;31429;42.674;23.350;2023-04-01T00:16:42;38.55;;;21.15;;
23163;SDS011;31429;42.674;23.350;2023-04-01T00:17:43;29.50;;;18.38;;
23163;SDS011;31429;42.674;23.350;2023-04-01T00:18:43;26.70;;;17.03;;
23163;SDS011;31429;42.674;23.350;2023-04-01T00:19:44;29.43;;;19.33;;
23163;SDS011;31429;42.674;23.350;2023-04-01T00:20:45;29.57;;;17.13;;
23163;SDS011;31429;42.674;23.350;2023-04-01T00:21:46;31.50;;;20.00;;
23163;SDS011;31429;42.674;23.350;2023-04-01T00:22:48;26.85;;;18.13;;
23163;SDS011;31429;42.674;23.350;2023-04-01T00:23:48;28.97;;;18.90;;
23163;SDS011;31429;42.674;23.350;2023-04-01T00:24:49;28.67;;;17.83;;
23163;SDS011;31429;42.674;23.350;2023-04-01T00:25:50;26.57;;;18.10;;
23163;SDS011;31429;42.674;23.350;2023-04-01T00:26:50;23.50;;;17.47;;
23163;SDS011;31429;42.674;23.350;2023-04-01T00:27:51;30.63;;;20.53;;
23163;SDS011;31429;42.674;23.350;2023-04-01T00:28:52;26.83;;;19.23;;
23163;SDS011;31429;42.674;23.350;2023-04-01T00:29:53;26.93;;;18.37;;
23163;SDS011;31429;42.674;23.350;2023-04-01T00:30:53;30.33;;;19.73;;
23163;SDS011;31429;42.674;23.350;2023-04-01T00:31:55;29.67;;;18.93;;
23163;SDS011;31429;42.674;23.350;2023-04-01T00:32:56;32.88;;;21.52;;
23163;SDS011;31429;42.674;23.350;2023-04-01T00:33:57;29.63;;;19.00;;
23163;SDS011;31429;42.674;23.350;2023-04-01T00:34:57;31.80;;;18.93;;
23163;SDS011;31429;42.674;23.350;2023-04-01T00:36:05;28.67;;;19.05;;
23163;SDS011;31429;42.674;23.350;2023-04-01T00:37:07;24.33;;;17.58;;
23163;SDS011;31429;42.674;23.350;2023-04-01T00:38:08;23.20;;;16.30;;
23163;SDS011;31429;42.674;23.350;2023-04-01T00:39:10;25.58;;;16.88;;
23163;SDS011;31429;42.674;23.350;2023-04-01T00:40:20;23.80;;;15.87;;
23163;SDS011;31429;42.674;23.350;2023-04-01T00:41:25;23.60;;;15.15;;
23163;SDS011;31429;42.674;23.350;2023-04-01T00:42:26;21.83;;;14.40;;
23163;SDS011;31429;42.674;23.350;2023-04-01T00:43:27;21.53;;;14.97;;
23163;SDS011;31429;42.674;23.350;2023-04-01T00:44:28;21.90;;;14.07;;
23163;SDS011;31429;42.674;23.350;2023-04-01T00:45:32;21.75;;;15.25;;
23163;SDS011;31429;42.674;23.350;2023-04-01T00:46:35;22.45;;;14.35;;
23163;SDS011;31429;42.674;23.350;2023-04-01T00:47:38;24.67;;;15.25;;
23163;SDS011;31429;42.674;23.350;2023-04-01T00:48:39;26.83;;;16.00;;
23163;SDS011;31429;42.674;23.350;2023-04-01T00:49:44;24.95;;;15.68;;
23163;SDS011;31429;42.674;23.350;2023-04-01T00:50:48;24.20;;;15.43;;
23163;SDS011;31429;42.674;23.350;2023-04-01T00:51:52;26.02;;;15.30;;
23163;SDS011;31429;42.674;23.350;2023-04-01T00:52:54;24.67;;;15.30;;
23163;SDS011;31429;42.674;23.350;2023-04-01T00:53:56;22.47;;;16.70;;
23163;SDS011;31429;42.674;23.350;2023-04-01T00:55:01;25.45;;;16.75;;
23163;SDS011;31429;42.674;23.350;2023-04-01T00:56:05;25.15;;;14.25;;
23163;SDS011;31429;42.674;23.350;2023-04-01T00:57:13;26.30;;;15.80;;
23163;SDS011;31429;42.674;23.350;2023-04-01T00:58:18;23.13;;;16.75;;
23163;SDS011;31429;42.674;23.350;2023-04-01T00:59:23;20.08;;;14.30;;
23163;SDS011;31429;42.674;23.350;2023-04-01T01:00:26;23.23;;;13.30;;
23163;SDS011;31429;42.674;23.350;2023-04-01T01:01:27;23.23;;;14.93;;
23163;SDS011;31429;42.674;23.350;2023-04-01T01:02:30;23.20;;;14.25;;
23163;SDS011;31429;42.674;23.350;2023-04-01T01:03:33;20.63;;;13.75;;
23163;SDS011;31429;42.674;23.350;2023-04-01T01:04:34;18.75;;;14.23;;
23163;SDS011;31429;42.674;23.350;2023-04-01T01:05:38;17.95;;;13.57;;
23163;SDS011;31429;42.674;23.350;2023-04-01T01:06:56;23.77;;;14.93;;
23163;SDS011;31429;42.674;23.350;2023-04-01T01:08:09;26.00;;;15.02;;
23163;SDS011;31429;42.674;23.350;2023-04-01T01:09:25;24.33;;;15.00;;
23163;SDS011;31429;42.674;23.350;2023-04-01T01:10:31;21.02;;;14.38;;
23163;SDS011;31429;42.674;23.350;2023-04-01T01:11:35;18.95;;;13.68;;
23163;SDS011;31429;42.674;23.350;2023-04-01T01:12:40;18.65;;;13.32;;
23163;SDS011;31429;42.674;23.350;2023-04-01T01:13:47;25.75;;;16.45;;
23163;SDS011;31429;42.674;23.350;2023-04-01T01:15:01;24.15;;;15.35;;
23163;SDS011;31429;42.674;23.350;2023-04-01T01:16:09;18.17;;;13.75;;
23163;SDS011;31429;42.674;23.350;2023-04-01T01:17:19;23.35;;;14.07;;
23163;SDS011;31429;42.674;23.350;2023-04-01T01:18:29;22.45;;;12.80;;
23163;SDS011;31429;42.674;23.350;2023-04-01T01:19:43;26.40;;;14.60;;
23163;SDS011;31429;42.674;23.350;2023-04-01T01:21:06;23.75;;;14.85;;
23163;SDS011;31429;42.674;23.350;2023-04-01T01:22:42;25.35;;;14.15;;
23163;SDS011;31429;42.674;23.350;2023-04-01T01:24:12;20.90;;;12.95;;
23163;SDS011;31429;42.674;23.350;2023-04-01T01:25:30;21.38;;;14.25;;
23163;SDS011;31429;42.674;23.350;2023-04-01T01:26:48;16.08;;;12.07;;
23163;SDS011;31429;42.674;23.350;2023-04-01T01:28:02;27.83;;;16.10;;
23163;SDS011;31429;42.674;23.350;2023-04-01T01:29:30;21.13;;;13.75;;
23163;SDS011;31429;42.674;23.350;2023-04-01T01:30:42;20.80;;;12.57;;
23163;SDS011;31429;42.674;23.350;2023-04-01T01:31:49;20.90;;;13.77;;
23163;SDS011;31429;42.674;23.350;2023-04-01T01:34:26;27.92;;;15.52;;
23163;SDS011;31429;42.674;23.350;2023-04-01T01:35:34;30.20;;;16.90;;
23163;SDS011;31429;42.674;23.350;2023-04-01T01:36:38;25.42;;;13.88;;
23163;SDS011;31429;42.674;23.350;2023-04-01T01:37:42;19.98;;;13.60;;
23163;SDS011;31429;42.674;23.350;2023-04-01T01:38:46;19.25;;;13.55;;
23163;SDS011;31429;42.674;23.350;2023-04-01T01:39:51;19.30;;;12.27;;
23163;SDS011;31429;42.674;23.350;2023-04-01T01:40:54;24.02;;;15.27;;
23163;SDS011;31429;42.674;23.350;2023-04-01T01:41:58;25.02;;;17.58;;
23163;SDS011;31429;42.674;23.350;2023-04-01T01:43:03;20.60;;;13.77;;
23163;SDS011;31429;42.674;23.350;2023-04-01T01:44:07;23.42;;;15.88;;
23163;SDS011;31429;42.674;23.350;2023-04-01T01:45:10;22.48;;;17.25;;
23163;SDS011;31429;42.674;23.350;2023-04-01T01:46:13;27.35;;;18.17;;
23163;SDS011;31429;42.674;23.350;2023-04-01T01:47:17;17.45;;;10.00;;
23163;SDS011;31429;42.674;23.350;2023-04-01T01:48:21;15.98;;;10.10;;
23163;SDS011;31429;42.674;23.350;2023-04-01T01:49:23;27.73;;;18.80;;
23163;SDS011;31429;42.674;23.350;2023-04-01T01:50:25;14.93;;;10.30;;
23163;SDS011;31429;42.674;23.350;2023-04-01T01:51:28;40.67;;;28.48;;
23163;SDS011;31429;42.674;23.350;2023-04-01T01:52:30;21.55;;;11.98;;
23163;SDS011;31429;42.674;23.350;2023-04-01T01:53:30;43.87;;;26.60;;
23163;SDS011;31429;42.674;23.350;2023-04-01T01:54:31;45.37;;;28.27;;
23163;SDS011;31429;42.674;23.350;2023-04-01T01:55:33;14.60;;;9.40;;
23163;SDS011;31429;42.674;23.350;2023-04-01T01:56:35;14.43;;;9.00;;
23163;SDS011;31429;42.674;23.350;2023-04-01T01:57:36;71.20;;;47.30;;
23163;SDS011;31429;42.674;23.350;2023-04-01T01:58:40;198.65;;;130.15;;
23163;SDS011;31429;42.674;23.350;2023-04-01T01:59:44;143.68;;;97.00;;
23163;SDS011;31429;42.674;23.350;2023-04-01T02:00:49;20.75;;;12.80;;
23163;SDS011;31429;42.674;23.350;2023-04-01T02:01:54;19.35;;;10.30;;
23163;SDS011;31429;42.674;23.350;2023-04-01T02:02:56;15.90;;;9.55;;
23163;SDS011;31429;42.674;23.350;2023-04-01T02:03:58;25.38;;;15.90;;
23163;SDS011;31429;42.674;23.350;2023-04-01T02:04:59;24.67;;;13.88;;
23163;SDS011;31429;42.674;23.350;2023-04-01T02:06:01;34.67;;;20.75;;
23163;SDS011;31429;42.674;23.350;2023-04-01T02:07:07;21.52;;;13.35;;
23163;SDS011;31429;42.674;23.350;2023-04-01T02:08:11;20.17;;;11.25;;
23163;SDS011;31429;42.674;23.350;2023-04-01T02:09:15;26.40;;;16.35;;
23163;SDS011;31429;42.674;23.350;2023-04-01T02:10:16;22.27;;;14.60;;
23163;SDS011;31429;42.674;23.350;2023-04-01T02:11:19;19.02;;;13.77;;
23163;SDS011;31429;42.674;23.350;2023-04-01T02:12:26;24.92;;;16.40;;
23163;SDS011;31429;42.674;23.350;2023-04-01T02:13:29;35.10;;;17.83;;
23163;SDS011;31429;42.674;23.350;2023-04-01T02:14:35;25.15;;;14.85;;
23163;SDS011;31429;42.674;23.350;2023-04-01T02:15:41;36.80;;;23.95;;
23163;SDS011;31429;42.674;23.350;2023-04-01T02:16:47;14.20;;;9.35;;
23163;SDS011;31429;42.674;23.350;2023-04-01T02:17:51;15.48;;;7.82;;
23163;SDS011;31429;42.674;23.350;2023-04-01T02:18:52;17.20;;;8.63;;
23163;SDS011;31429;42.674;23.350;2023-04-01T02:19:56;15.00;;;9.32;;
23163;SDS011;31429;42.674;23.350;2023-04-01T02:21:00;20.80;;;13.55;;
23163;SDS011;31429;42.674;23.350;2023-04-01T02:22:01;14.05;;;7.50;;
23163;SDS011;31429;42.674;23.350;2023-04-01T02:23:05;19.35;;;11.73;;
23163;SDS011;31429;42.674;23.350;2023-04-01T02:24:10;31.02;;;15.43;;
23163;SDS011;31429;42.674;23.350;2023-04-01T02:25:15;19.73;;;11.90;;
23163;SDS011;31429;42.674;23.350;2023-04-01T02:26:18;11.95;;;8.48;;
23163;SDS011;31429;42.674;23.350;2023-04-01T02:27:21;13.70;;;8.13;;
23163;SDS011;31429;42.674;23.350;2023-04-01T02:28:22;11.65;;;8.43;;
23163;SDS011;31429;42.674;23.350;2023-04-01T02:29:25;14.32;;;8.43;;
23163;SDS011;31429;42.674;23.350;2023-04-01T02:30:25;13.23;;;8.20;;
23163;SDS011;31429;42.674;23.350;2023-04-01T02:31:29;11.68;;;8.10;;
23163;SDS011;31429;42.674;23.350;2023-04-01T02:32:30;21.75;;;11.65;;
23163;SDS011;31429;42.674;23.350;2023-04-01T02:33:33;9.68;;;7.15;;
23163;SDS011;31429;42.674;23.350;2023-04-01T02:34:35;15.43;;;7.70;;
23163;SDS011;31429;42.674;23.350;2023-04-01T02:35:36;14.00;;;8.48;;
23163;SDS011;31429;42.674;23.350;2023-04-01T02:36:37;14.13;;;8.48;;
23163;SDS011;31429;42.674;23.350;2023-04-01T02:37:38;16.60;;;8.82;;
23163;SDS011;31429;42.674;23.350;2023-04-01T02:38:45;17.23;;;9.15;;
23163;SDS011;31429;42.674;23.350;2023-04-01T02:39:48;18.05;;;8.88;;
23163;SDS011;31429;42.674;23.350;2023-04-01T02:40:50;18.77;;;11.63;;
23163;SDS011;31429;42.674;23.350;2023-04-01T02:41:56;20.73;;;10.85;;
23163;SDS011;31429;42.674;23.350;2023-04-01T02:42:56;19.40;;;10.50;;
23163;SDS011;31429;42.674;23.350;2023-04-01T02:43:58;19.15;;;8.98;;
23163;SDS011;31429;42.674;23.350;2023-04-01T02:44:59;15.93;;;8.32;;
23163;SDS011;31429;42.674;23.350;2023-04-01T02:46:00;13.80;;;7.07;;
23163;SDS011;31429;42.674;23.350;2023-04-01T02:47:02;15.05;;;8.32;;
23163;SDS011;31429;42.674;23.350;2023-04-01T02:48:03;17.02;;;10.60;;
23163;SDS011;31429;42.674;23.350;2023-04-01T02:49:04;10.93;;;8.00;;
23163;SDS011;31429;42.674;23.350;2023-04-01T02:50:05;13.97;;;8.50;;
23163;SDS011;31429;42.674;23.350;2023-04-01T02:51:07;15.93;;;8.63;;
23163;SDS011;31429;42.674;23.350;2023-04-01T02:52:08;14.95;;;7.88;;
23163;SDS011;31429;42.674;23.350;2023-04-01T02:53:09;17.37;;;8.67;;
23163;SDS011;31429;42.674;23.350;2023-04-01T02:54:11;16.52;;;8.40;;
23163;SDS011;31429;42.674;23.350;2023-04-01T02:55:12;17.40;;;9.57;;
23163;SDS011;31429;42.674;23.350;2023-04-01T02:56:13;14.77;;;8.77;;
23163;SDS011;31429;42.674;23.350;2023-04-01T02:57:14;11.47;;;7.50;;
23163;SDS011;31429;42.674;23.350;2023-04-01T02:58:14;12.90;;;8.23;;
23163;SDS011;31429;42.674;23.350;2023-04-01T02:59:15;20.23;;;8.53;;
23163;SDS011;31429;42.674;23.350;2023-04-01T03:00:16;12.13;;;8.13;;
23163;SDS011;31429;42.674;23.350;2023-04-01T03:01:17;22.95;;;10.52;;
23163;SDS011;31429;42.674;23.350;2023-04-01T03:02:18;16.17;;;9.23;;
23163;SDS011;31429;42.674;23.350;2023-04-01T03:03:19;15.30;;;9.00;;
23163;SDS011;31429;42.674;23.350;2023-04-01T03:04:20;12.37;;;7.60;;
23163;SDS011;31429;42.674;23.350;2023-04-01T03:05:20;16.40;;;9.57;;
23163;SDS011;31429;42.674;23.350;2023-04-01T03:06:21;11.80;;;8.13;;
23163;SDS011;31429;42.674;23.350;2023-04-01T03:07:22;19.27;;;8.67;;
23163;SDS011;31429;42.674;23.350;2023-04-01T03:08:22;15.70;;;9.23;;
23163;SDS011;31429;42.674;23.350;2023-04-01T03:09:24;15.53;;;8.53;;
23163;SDS011;31429;42.674;23.350;2023-04-01T03:10:25;15.50;;;8.70;;
23163;SDS011;31429;42.674;23.350;2023-04-01T03:11:26;17.87;;;10.40;;
23163;SDS011;31429;42.674;23.350;2023-04-01T03:12:26;19.80;;;10.20;;
23163;SDS011;31429;42.674;23.350;2023-04-01T03:13:27;17.23;;;9.60;;
23163;SDS011;31429;42.674;23.350;2023-04-01T03:14:28;12.83;;;9.07;;
23163;SDS011;31429;42.674;23.350;2023-04-01T03:15:28;17.20;;;10.93;;
23163;SDS011;31429;42.674;23.350;2023-04-01T03:16:29;24.87;;;12.23;;
23163;SDS011;31429;42.674;23.350;2023-04-01T03:17:29;23.47;;;12.00;;
23163;SDS011;31429;42.674;23.350;2023-04-01T03:18:30;18.03;;;11.17;;
23163;SDS011;31429;42.674;23.350;2023-04-01T03:19:31;20.87;;;12.30;;
23163;SDS011;31429;42.674;23.350;2023-04-01T03:20:31;24.87;;;12.83;;
23163;SDS011;31429;42.674;23.350;2023-04-01T03:21:32;27.17;;;13.43;;
23163;SDS011;31429;42.674;23.350;2023-04-01T03:22:32;17.53;;;12.50;;
23163;SDS011;31429;42.674;23.350;2023-04-01T03:23:33;23.23;;;13.20;;
23163;SDS011;31429;42.674;23.350;2023-04-01T03:24:35;25.73;;;14.63;;
23163;SDS011;31429;42.674;23.350;2023-04-01T03:25:36;27.17;;;14.07;;
23163;SDS011;31429;42.674;23.350;2023-04-01T03:26:36;21.43;;;12.97;;
23163;SDS011;31429;42.674;23.350;2023-04-01T03:27:37;22.13;;;13.43;;
23163;SDS011;31429;42.674;23.350;2023-04-01T03:28:38;28.83;;;14.33;;
23163;SDS011;31429;42.674;23.350;2023-04-01T03:29:38;24.33;;;13.33;;
23163;SDS011;31429;42.674;23.350;2023-04-01T03:30:39;24.27;;;13.37;;
23163;SDS011;31429;42.674;23.350;2023-04-01T03:31:40;23.93;;;14.53;;
23163;SDS011;31429;42.674;23.350;2023-04-01T03:32:40;21.47;;;14.23;;
23163;SDS011;31429;42.674;23.350;2023-04-01T03:33:41;23.63;;;13.40;;
23163;SDS011;31429;42.674;23.350;2023-04-01T03:34:42;20.33;;;13.80;;
23163;SDS011;31429;42.674;23.350;2023-04-01T03:35:43;22.83;;;14.17;;
23163;SDS011;31429;42.674;23.350;2023-04-01T03:36:43;18.63;;;13.77;;
23163;SDS011;31429;42.674;23.350;2023-04-01T03:37:44;23.77;;;14.23;;
23163;SDS011;31429;42.674;23.350;2023-04-01T03:38:45;24.50;;;15.00;;
23163;SDS011;31429;42.674;23.350;2023-04-01T03:39:47;23.17;;;13.33;;
23163;SDS011;31429;42.674;23.350;2023-04-01T03:40:47;22.55;;;14.05;;
23163;SDS011;31429;42.674;23.350;2023-04-01T03:41:48;25.53;;;14.23;;
23163;SDS011;31429;42.674;23.350;2023-04-01T03:42:49;23.87;;;13.20;;
23163;SDS011;31429;42.674;23.350;2023-04-01T03:43:50;21.53;;;13.60;;
23163;SDS011;31429;42.674;23.350;2023-04-01T03:44:50;21.70;;;14.47;;
23163;SDS011;31429;42.674;23.350;2023-04-01T03:45:51;22.23;;;14.67;;
23163;SDS011;31429;42.674;23.350;2023-04-01T03:46:52;25.47;;;14.73;;
23163;SDS011;31429;42.674;23.350;2023-04-01T03:47:52;25.93;;;14.53;;
23163;SDS011;31429;42.674;23.350;2023-04-01T03:48:54;27.08;;;14.35;;
23163;SDS011;31429;42.674;23.350;2023-04-01T03:49:54;23.70;;;13.77;;
23163;SDS011;31429;42.674;23.350;2023-04-01T03:50:55;23.63;;;14.20;;
23163;SDS011;31429;42.674;23.350;2023-04-01T03:51:56;21.17;;;14.50;;
23163;SDS011;31429;42.674;23.350;2023-04-01T03:52:56;24.57;;;14.10;;
23163;SDS011;31429;42.674;23.350;2023-04-01T03:53:57;22.80;;;14.73;;
23163;SDS011;31429;42.674;23.350;2023-04-01T03:55:00;22.30;;;13.87;;
23163;SDS011;31429;42.674;23.350;2023-04-01T03:56:03;27.05;;;14.73;;
23163;SDS011;31429;42.674;23.350;2023-04-01T03:57:05;23.55;;;14.35;;
23163;SDS011;31429;42.674;23.350;2023-04-01T03:58:06;24.80;;;15.33;;
23163;SDS011;31429;42.674;23.350;2023-04-01T03:59:07;26.35;;;15.20;;
23163;SDS011;31429;42.674;23.350;2023-04-01T04:00:08;22.10;;;14.68;;
23163;SDS011;31429;42.674;23.350;2023-04-01T04:01:14;25.73;;;15.00;;
23163;SDS011;31429;42.674;23.350;2023-04-01T04:02:16;23.92;;;14.80;;
23163;SDS011;31429;42.674;23.350;2023-04-01T04:03:17;25.73;;;14.53;;
23163;SDS011;31429;42.674;23.350;2023-04-01T04:04:17;24.03;;;14.63;;
23163;SDS011;31429;42.674;23.350;2023-04-01T04:05:18;22.13;;;13.07;;
23163;SDS011;31429;42.674;23.350;2023-04-01T04:06:18;24.97;;;14.80;;
23163;SDS011;31429;42.674;23.350;2023-04-01T04:07:19;21.93;;;13.43;;
23163;SDS011;31429;42.674;23.350;2023-04-01T04:08:20;26.50;;;15.17;;
23163;SDS011;31429;42.674;23.350;2023-04-01T04:09:21;23.30;;;15.20;;
23163;SDS011;31429;42.674;23.350;2023-04-01T04:10:24;26.30;;;13.90;;
23163;SDS011;31429;42.674;23.350;2023-04-01T04:11:25;22.33;;;14.07;;
23163;SDS011;31429;42.674;23.350;2023-04-01T04:12:25;18.97;;;14.07;;
23163;SDS011;31429;42.674;23.350;2023-04-01T04:13:26;25.37;;;14.00;;
23163;SDS011;31429;42.674;23.350;2023-04-01T04:14:27;20.83;;;14.37;;
23163;SDS011;31429;42.674;23.350;2023-04-01T04:15:27;25.37;;;14.10;;
23163;SDS011;31429;42.674;23.350;2023-04-01T04:16:28;26.10;;;15.10;;
23163;SDS011;31429;42.674;23.350;2023-04-01T04:17:29;24.47;;;15.47;;
23163;SDS011;31429;42.674;23.350;2023-04-01T04:18:29;24.23;;;14.87;;
23163;SDS011;31429;42.674;23.350;2023-04-01T04:19:31;24.40;;;14.23;;
23163;SDS011;31429;42.674;23.350;2023-04-01T04:20:33;25.90;;;15.10;;
23163;SDS011;31429;42.674;23.350;2023-04-01T04:21:35;24.45;;;14.73;;
23163;SDS011;31429;42.674;23.350;2023-04-01T04:22:35;20.53;;;14.73;;
23163;SDS011;31429;42.674;23.350;2023-04-01T04:23:36;26.30;;;14.43;;
23163;SDS011;31429;42.674;23.350;2023-04-01T04:24:37;18.30;;;13.40;;
23163;SDS011;31429;42.674;23.350;2023-04-01T04:25:39;20.37;;;12.73;;
23163;SDS011;31429;42.674;23.350;2023-04-01T04:26:40;21.48;;;12.50;;
23163;SDS011;31429;42.674;23.350;2023-04-01T04:27:40;23.80;;;11.83;;
23163;SDS011;31429;42.674;23.350;2023-04-01T04:28:41;18.70;;;12.93;;
23163;SDS011;31429;42.674;23.350;2023-04-01T04:29:42;20.43;;;13.17;;
23163;SDS011;31429;42.674;23.350;2023-04-01T04:30:43;18.97;;;12.53;;
23163;SDS011;31429;42.674;23.350;2023-04-01T04:31:43;21.50;;;12.20;;
23163;SDS011;31429;42.674;23.350;2023-04-01T04:32:44;21.87;;;11.57;;
23163;SDS011;31429;42.674;23.350;2023-04-01T04:33:45;18.73;;;12.07;;
23163;SDS011;31429;42.674;23.350;2023-04-01T04:34:45;17.43;;;11.17;;
23163;SDS011;31429;42.674;23.350;2023-04-01T04:35:46;19.77;;;11.63;;
23163;SDS011;31429;42.674;23.350;2023-04-01T04:36:47;19.60;;;11.53;;
23163;SDS011;31429;42.674;23.350;2023-04-01T04:37:48;15.77;;;10.50;;
23163;SDS011;31429;42.674;23.350;2023-04-01T04:38:48;18.77;;;11.77;;
23163;SDS011;31429;42.674;23.350;2023-04-01T04:39:49;20.30;;;11.67;;
23163;SDS011;31429;42.674;23.350;2023-04-01T04:40:51;21.33;;;11.37;;
23163;SDS011;31429;42.674;23.350;2023-04-01T04:41:51;21.85;;;11.38;;
23163;SDS011;31429;42.674;23.350;2023-04-01T04:42:52;16.50;;;11.73;;
23163;SDS011;31429;42.674;23.350;2023-04-01T04:43:53;26.40;;;12.07;;
23163;SDS011;31429;42.674;23.350;2023-04-01T04:44:55;18.17;;;10.93;;
23163;SDS011;31429;42.674;23.350;2023-04-01T04:45:55;20.67;;;11.00;;
23163;SDS011;31429;42.674;23.350;2023-04-01T04:46:56;17.50;;;11.03;;
23163;SDS011;31429;42.674;23.350;2023-04-01T04:47:57;24.23;;;11.27;;
23163;SDS011;31429;42.674;23.350;2023-04-01T04:48:58;17.77;;;10.20;;
23163;SDS011;31429;42.674;23.350;2023-04-01T04:49:59;17.43;;;10.80;;
23163;SDS011;31429;42.674;23.350;2023-04-01T04:50:59;16.70;;;10.40;;
23163;SDS011;31429;42.674;23.350;2023-04-01T04:52:00;20.03;;;11.37;;
23163;SDS011;31429;42.674;23.350;2023-04-01T04:53:01;14.30;;;11.27;;
23163;SDS011;31429;42.674;23.350;2023-04-01T04:54:02;21.90;;;11.33;;
23163;SDS011;31429;42.674;23.350;2023-04-01T04:55:04;17.08;;;10.82;;
23163;SDS011;31429;42.674;23.350;2023-04-01T04:56:07;21.65;;;11.15;;
23163;SDS011;31429;42.674;23.350;2023-04-01T04:57:07;17.98;;;10.20;;
23163;SDS011;31429;42.674;23.350;2023-04-01T04:58:08;19.77;;;11.27;;
23163;SDS011;31429;42.674;23.350;2023-04-01T04:59:09;15.97;;;9.73;;
23163;SDS011;31429;42.674;23.350;2023-04-01T05:00:10;15.30;;;10.13;;
23163;SDS011;31429;42.674;23.350;2023-04-01T05:01:12;18.70;;;11.27;;
23163;SDS011;31429;42.674;23.350;2023-04-01T05:02:14;19.60;;;10.40;;
23163;SDS011;31429;42.674;23.350;2023-04-01T05:03:15;17.17;;;10.77;;
23163;SDS011;31429;42.674;23.350;2023-04-01T05:04:16;18.70;;;11.30;;
23163;SDS011;31429;42.674;23.350;2023-04-01T05:05:16;20.73;;;9.93;;
23163;SDS011;31429;42.674;23.350;2023-04-01T05:06:17;22.57;;;11.40;;
23163;SDS011;31429;42.674;23.350;2023-04-01T05:07:19;16.60;;;10.35;;
23163;SDS011;31429;42.674;23.350;2023-04-01T05:08:20;15.33;;;9.70;;
23163;SDS011;31429;42.674;23.350;2023-04-01T05:09:21;19.30;;;10.37;;
23163;SDS011;31429;42.674;23.350;2023-04-01T05:10:21;15.73;;;10.17;;
23163;SDS011;31429;42.674;23.350;2023-04-01T05:11:23;15.57;;;10.50;;
23163;SDS011;31429;42.674;23.350;2023-04-01T05:12:26;18.08;;;10.55;;
23163;SDS011;31429;42.674;23.350;2023-04-01T05:13:26;19.20;;;10.57;;
23163;SDS011;31429;42.674;23.350;2023-04-01T05:14:27;18.90;;;10.23;;
23163;SDS011;31429;42.674;23.350;2023-04-01T05:15:28;17.83;;;11.00;;
23163;SDS011;31429;42.674;23.350;2023-04-01T05:16:28;57.13;;;38.63;;
23163;SDS011;31429;42.674;23.350;2023-04-01T05:17:30;208.73;;;127.20;;
23163;SDS011;31429;42.674;23.350;2023-04-01T05:18:30;54.30;;;35.47;;
23163;SDS011;31429;42.674;23.350;2023-04-01T05:19:31;43.60;;;24.90;;
23163;SDS011;31429;42.674;23.350;2023-04-01T05:20:32;57.27;;;36.07;;
23163;SDS011;31429;42.674;23.350;2023-04-01T05:21:32;27.07;;;10.13;;
23163;SDS011;31429;42.674;23.350;2023-04-01T05:22:33;62.87;;;38.87;;
23163;SDS011;31429;42.674;23.350;2023-04-01T05:23:34;142.30;;;91.93;;
23163;SDS011;31429;42.674;23.350;2023-04-01T05:24:34;132.67;;;83.73;;
23163;SDS011;31429;42.674;23.350;2023-04-01T05:25:37;195.90;;;118.47;;
23163;SDS011;31429;42.674;23.350;2023-04-01T05:26:39;85.63;;;51.45;;
23163;SDS011;31429;42.674;23.350;2023-04-01T05:27:39;93.07;;;59.33;;
23163;SDS011;31429;42.674;23.350;2023-04-01T05:28:41;21.80;;;12.40;;
23163;SDS011;31429;42.674;23.350;2023-04-01T05:29:41;16.73;;;9.63;;
23163;SDS011;31429;42.674;23.350;2023-04-01T05:30:42;20.67;;;10.30;;
23163;SDS011;31429;42.674;23.350;2023-04-01T05:31:43;17.85;;;11.30;;
23163;SDS011;31429;42.674;23.350;2023-04-01T05:32:44;14.50;;;10.23;;
23163;SDS011;31429;42.674;23.350;2023-04-01T05:33:45;16.40;;;11.63;;
23163;SDS011;31429;42.674;23.350;2023-04-01T05:34:45;21.50;;;11.33;;
23163;SDS011;31429;42.674;23.350;2023-04-01T05:35:46;27.83;;;18.87;;
23163;SDS011;31429;42.674;23.350;2023-04-01T05:36:46;22.83;;;13.73;;
23163;SDS011;31429;42.674;23.350;2023-04-01T05:37:47;23.30;;;11.87;;
23163;SDS011;31429;42.674;23.350;2023-04-01T05:38:48;13.17;;;9.20;;
23163;SDS011;31429;42.674;23.350;2023-04-01T05:39:49;17.17;;;9.13;;
23163;SDS011;31429;42.674;23.350;2023-04-01T05:40:49;20.63;;;11.17;;
23163;SDS011;31429;42.674;23.350;2023-04-01T05:41:51;20.10;;;10.03;;
23163;SDS011;31429;42.674;23.350;2023-04-01T05:42:52;15.32;;;9.52;;
23163;SDS011;31429;42.674;23.350;2023-04-01T05:43:52;14.30;;;8.93;;
23163;SDS011;31429;42.674;23.350;2023-04-01T05:44:53;14.70;;;8.03;;
23163;SDS011;31429;42.674;23.350;2023-04-01T05:45:55;19.13;;;8.80;;
23163;SDS011;31429;42.674;23.350;2023-04-01T05:46:56;30.57;;;21.27;;
23163;SDS011;31429;42.674;23.350;2023-04-01T05:47:57;17.37;;;10.20;;
23163;SDS011;31429;42.674;23.350;2023-04-01T05:48:58;14.30;;;8.35;;
23163;SDS011;31429;42.674;23.350;2023-04-01T05:49:59;31.77;;;19.73;;
23163;SDS011;31429;42.674;23.350;2023-04-01T05:51:00;23.00;;;10.50;;
23163;SDS011;31429;42.674;23.350;2023-04-01T05:52:01;21.60;;;14.97;;
23163;SDS011;31429;42.674;23.350;2023-04-01T05:53:01;27.70;;;18.27;;
23163;SDS011;31429;42.674;23.350;2023-04-01T05:54:03;40.70;;;27.70;;
23163;SDS011;31429;42.674;23.350;2023-04-01T05:55:05;29.70;;;19.38;;
23163;SDS011;31429;42.674;23.350;2023-04-01T05:56:06;41.70;;;28.83;;
23163;SDS011;31429;42.674;23.350;2023-04-01T05:57:10;40.45;;;22.25;;
23163;SDS011;31429;42.674;23.350;2023-04-01T05:58:11;30.83;;;17.83;;
23163;SDS011;31429;42.674;23.350;2023-04-01T05:59:12;67.90;;;45.80;;
23163;SDS011;31429;42.674;23.350;2023-04-01T06:00:13;35.13;;;22.47;;
23163;SDS011;31429;42.674;23.350;2023-04-01T06:01:14;14.43;;;8.90;;
23163;SDS011;31429;42.674;23.350;2023-04-01T06:02:16;12.57;;;8.30;;